Time;durP1;ratioP1;P1;durP2;ratioP2;P2;SDS_P1;SDS_P2;PMS_P1;PMS_P2;Temp;Humidity;BMP_temperature;BMP_pressure;BME280_temperature;BME280_humidity;BME280_pressure;Samples;Min_cycle;Max_cycle;Signal;HPM_P1;HPM_P2
2023/09/23 00:50:17;;;;;;;6.70;4.30;;;;;;;22.81;62.91;97734.77;105403;1260;61717;-31
2023/09/23 00:52:51;;;;;;;8.50;4.40;;;;;;;22.80;62.75;97734.61;105581;1261;73021;-33
2023/09/23 00:55:20;;;;;;;7.40;4.30;;;;;;;22.81;62.94;97733.61;105201;1257;66308;-33
2023/09/23 00:57:49;;;;;;;5.10;3.60;;;;;;;22.81;62.70;97734.69;105173;1257;72704;-34
2023/09/23 01:00:25;;;;;;;7.70;4.20;;;;;;;22.81;62.75;97733.45;105254;1262;60433;-33
2023/09/23 01:02:55;;;;;;;5.60;4.20;;;;;;;22.81;62.77;97732.73;105180;1258;60533;-33
2023/09/23 01:05:27;;;;;;;5.60;4.20;;;;;;;22.80;62.89;97732.34;105197;1262;73569;-36
2023/09/23 01:08:00;;;;;;;6.00;4.40;;;;;;;22.80;63.06;97734.84;105153;1259;66369;-34
2023/09/23 01:10:28;;;;;;;6.10;4.20;;;;;;;22.81;62.84;97738.37;105219;1259;72718;-37
2023/09/23 01:12:56;;;;;;;5.80;4.20;;;;;;;22.80;62.70;97741.16;105197;1262;60446;-34
2023/09/23 01:15:27;;;;;;;5.50;4.10;;;;;;;22.80;62.66;97744.12;105137;1260;60465;-33
2023/09/23 01:17:54;;;;;;;5.10;3.80;;;;;;;22.80;62.70;97744.45;105715;1260;73808;-33
2023/09/23 01:20:22;;;;;;;6.80;4.10;;;;;;;22.81;62.79;97752.71;105155;1262;66269;-34
2023/09/23 01:22:49;;;;;;;5.40;4.10;;;;;;;22.81;62.77;97759.27;105045;1260;72637;-36
2023/09/23 01:25:18;;;;;;;6.10;4.40;;;;;;;22.81;62.61;97757.16;105289;1262;60470;-30
2023/09/23 01:27:45;;;;;;;5.60;4.60;;;;;;;22.81;62.70;97757.63;105528;1262;60486;-33
2023/09/23 01:30:13;;;;;;;5.40;4.20;;;;;;;22.81;62.61;97763.02;105311;1261;73833;-33
2023/09/23 01:32:49;;;;;;;6.50;4.20;;;;;;;22.80;62.70;97761.38;105491;1262;65458;-33
2023/09/23 01:35:16;;;;;;;6.10;4.50;;;;;;;22.79;62.70;97758.48;105541;1259;71772;-33
2023/09/23 01:37:44;;;;;;;6.70;4.60;;;;;;;22.79;62.85;97759.48;105483;1262;60499;-33
2023/09/23 01:40:19;;;;;;;8.00;5.00;;;;;;;22.78;62.81;97760.72;105522;1260;60773;-34
2023/09/23 01:42:49;;;;;;;6.10;4.60;;;;;;;22.77;62.93;97759.00;105498;1262;73890;-33
2023/09/23 01:45:19;;;;;;;4.80;4.20;;;;;;;22.77;62.83;97755.11;105558;1258;65243;-33
2023/09/23 01:47:48;;;;;;;8.10;4.70;;;;;;;22.77;62.96;97757.76;105541;1262;72644;-34
2023/09/23 01:50:18;;;;;;;6.90;4.40;;;;;;;22.76;62.89;97762.98;105327;1262;60565;-34
2023/09/23 01:52:46;;;;;;;6.50;4.20;;;;;;;22.76;63.00;97756.01;105186;1259;60488;-33
2023/09/23 01:55:16;;;;;;;7.10;4.60;;;;;;;22.75;62.88;97752.65;105520;1262;73775;-34
2023/09/23 01:57:44;;;;;;;6.80;4.50;;;;;;;22.76;62.67;97753.14;105474;1262;67411;-31
2023/09/23 02:00:17;;;;;;;6.10;4.40;;;;;;;22.76;62.88;97750.48;105543;1258;72588;-33
2023/09/23 02:02:45;;;;;;;5.70;4.30;;;;;;;22.76;62.74;97749.45;105409;1259;60636;-34
2023/09/23 02:05:13;;;;;;;5.40;3.80;;;;;;;22.76;62.83;97749.07;105374;1260;60901;-32
2023/09/23 02:07:41;;;;;;;6.40;4.50;;;;;;;22.76;62.90;97744.70;105412;1258;73519;-30
2023/09/23 02:10:10;;;;;;;6.10;4.60;;;;;;;22.75;62.85;97749.69;105582;1261;65674;-29
2023/09/23 02:12:38;;;;;;;7.60;4.40;;;;;;;22.76;62.88;97751.64;105529;1260;72637;-28
2023/09/23 02:15:06;;;;;;;8.00;4.80;;;;;;;22.75;62.77;97746.33;105278;1262;60563;-31
2023/09/23 02:17:36;;;;;;;6.50;4.40;;;;;;;22.75;62.65;97746.71;105097;1262;60444;-31
2023/09/23 02:20:25;;;;;;;5.60;4.20;;;;;;;22.74;62.83;97752.90;105108;1258;73888;-30
2023/09/23 02:22:55;;;;;;;9.80;4.90;;;;;;;22.74;62.75;97754.69;105050;1262;65480;-32
2023/09/23 02:25:25;;;;;;;7.00;4.60;;;;;;;22.74;62.64;97752.73;105051;1262;72489;-31
2023/09/23 02:27:54;;;;;;;6.40;4.60;;;;;;;22.74;62.72;97758.11;105035;1262;60444;-30
2023/09/23 02:30:23;;;;;;;5.40;4.30;;;;;;;22.74;62.73;97760.54;105155;1259;60832;-30
2023/09/23 02:32:50;;;;;;;5.90;4.30;;;;;;;22.74;62.97;97762.16;105451;1260;73822;-30
2023/09/23 02:35:18;;;;;;;6.50;4.80;;;;;;;22.74;62.91;97767.62;105455;1262;65622;-31
2023/09/23 02:37:47;;;;;;;4.90;4.10;;;;;;;22.73;62.76;97765.51;105272;1260;72714;-30
2023/09/23 02:40:16;;;;;;;7.20;4.20;;;;;;;22.73;62.74;97765.42;105241;1262;60813;-32
2023/09/23 02:42:47;;;;;;;5.40;4.20;;;;;;;22.73;62.77;97764.96;105492;1259;60427;-32
2023/09/23 02:45:16;;;;;;;5.20;4.40;;;;;;;22.73;62.66;97762.70;105512;1259;73794;-32
2023/09/23 02:47:45;;;;;;;6.70;4.20;;;;;;;22.72;62.71;97762.77;105508;1260;65161;-32
2023/09/23 02:50:13;;;;;;;6.10;4.20;;;;;;;22.73;62.77;97766.20;105500;1260;72696;-32
2023/09/23 02:52:44;;;;;;;4.70;4.00;;;;;;;22.72;62.66;97761.06;105420;1262;60404;-31
2023/09/23 02:55:14;;;;;;;6.10;4.60;;;;;;;22.72;62.80;97763.23;105512;1259;60429;-33
2023/09/23 02:57:49;;;;;;;5.70;4.30;;;;;;;22.71;62.77;97772.20;105494;1259;73796;-31
2023/09/23 03:00:21;;;;;;;4.90;4.10;;;;;;;22.71;62.98;97776.24;105540;1262;64892;-31
2023/09/23 03:02:56;;;;;;;6.40;4.50;;;;;;;22.70;62.67;97775.39;105504;1259;71271;-31
2023/09/23 03:05:31;;;;;;;6.30;3.90;;;;;;;22.69;62.75;97777.25;105572;1261;60553;-31
2023/09/23 03:07:59;;;;;;;6.00;4.10;;;;;;;22.69;62.83;97776.38;105185;1259;60548;-32
2023/09/23 03:10:40;;;;;;;8.40;4.50;;;;;;;22.68;62.87;97769.51;105169;1259;72661;-31
2023/09/23 03:13:11;;;;;;;5.40;4.30;;;;;;;22.69;62.82;97764.84;106022;1259;66312;-31
2023/09/23 03:15:48;;;;;;;6.00;4.30;;;;;;;22.68;62.91;97760.15;105272;1260;72629;-31
2023/09/23 03:18:17;;;;;;;8.60;4.50;;;;;;;22.67;63.01;97756.17;105479;1263;60628;-33
2023/09/23 03:20:45;;;;;;;9.10;4.70;;;;;;;22.67;62.97;97765.13;105469;1259;60664;-32
2023/09/23 03:23:12;;;;;;;6.70;4.70;;;;;;;22.67;63.04;97767.32;105343;1259;74116;-31
2023/09/23 03:25:47;;;;;;;5.70;4.40;;;;;;;22.67;62.96;97765.67;105234;1262;65116;-31
2023/09/23 03:28:18;;;;;;;4.60;4.10;;;;;;;22.67;63.07;97765.91;105585;1261;71217;-31
2023/09/23 03:30:48;;;;;;;4.80;4.30;;;;;;;22.66;63.03;97767.55;105103;1261;60645;-31
2023/09/23 03:33:20;;;;;;;6.10;4.10;;;;;;;22.65;62.94;97763.71;105529;1258;60620;-31
2023/09/23 03:35:49;;;;;;;7.40;4.40;;;;;;;22.65;63.15;97763.55;105532;1262;73812;-31
2023/09/23 03:38:16;;;;;;;5.70;4.50;;;;;;;22.65;62.99;97757.47;105538;1259;64796;-31
2023/09/23 03:40:52;;;;;;;5.90;4.30;;;;;;;22.65;63.09;97755.29;105099;1260;73114;-30
2023/09/23 03:43:20;;;;;;;5.20;3.90;;;;;;;22.64;63.13;97752.86;105461;1264;60394;-31
2023/09/23 03:45:48;;;;;;;6.40;3.90;;;;;;;22.64;63.09;97752.63;105293;1260;60632;-31
2023/09/23 03:48:17;;;;;;;6.20;4.70;;;;;;;22.64;63.02;97753.09;105568;1260;73780;-31
2023/09/23 03:50:50;;;;;;;6.70;4.00;;;;;;;22.63;62.97;97752.55;105251;1262;65622;-32
2023/09/23 03:53:21;;;;;;;5.20;4.20;;;;;;;22.63;62.95;97755.52;105532;1262;72682;-32
2023/09/23 03:55:52;;;;;;;7.50;4.30;;;;;;;22.63;62.95;97758.86;105414;1260;60511;-30
2023/09/23 03:58:19;;;;;;;6.20;4.10;;;;;;;22.63;63.22;97765.02;105721;1257;60414;-31
2023/09/23 04:00:47;;;;;;;4.70;4.00;;;;;;;22.63;63.12;97769.85;105284;1258;73789;-31
2023/09/23 04:03:17;;;;;;;5.90;4.10;;;;;;;22.63;63.13;97778.89;105291;1264;66736;-31
2023/09/23 04:05:57;;;;;;;6.70;4.20;;;;;;;22.62;62.87;97779.20;105493;1260;72679;-31
2023/09/23 04:08:26;;;;;;;6.50;4.40;;;;;;;22.63;63.11;97779.13;105599;1262;60478;-31
2023/09/23 04:10:53;;;;;;;6.40;3.80;;;;;;;22.62;63.21;97779.27;105093;1260;60458;-31
2023/09/23 04:13:20;;;;;;;5.30;4.00;;;;;;;22.61;63.28;97782.76;105464;1258;73572;-31
2023/09/23 04:15:48;;;;;;;5.80;4.10;;;;;;;22.61;63.25;97786.58;105144;1262;65482;-33
2023/09/23 04:18:18;;;;;;;6.40;4.10;;;;;;;22.61;63.22;97786.27;105548;1259;72715;-31
2023/09/23 04:20:48;;;;;;;7.30;4.00;;;;;;;22.60;63.23;97787.73;105177;1260;60537;-31
2023/09/23 04:23:16;;;;;;;6.30;4.10;;;;;;;22.59;63.23;97789.27;105721;1258;60553;-31
2023/09/23 04:25:43;;;;;;;6.90;3.90;;;;;;;22.59;63.02;97787.16;105279;1259;73821;-31
2023/09/23 04:28:11;;;;;;;5.80;3.80;;;;;;;22.59;63.11;97791.54;105628;1262;66323;-31
2023/09/23 04:30:45;;;;;;;6.00;4.00;;;;;;;22.58;63.28;97792.30;104897;1264;74321;-32
2023/09/23 04:33:15;;;;;;;6.80;4.40;;;;;;;22.58;63.37;97796.36;105138;1267;60496;-32
2023/09/23 04:35:49;;;;;;;7.50;4.30;;;;;;;22.57;63.22;97802.90;104826;1263;60559;-30
2023/09/23 04:38:18;;;;;;;7.50;4.00;;;;;;;22.56;63.22;97803.05;104801;1262;74251;-33
2023/09/23 04:40:46;;;;;;;5.60;4.20;;;;;;;22.57;63.43;97807.19;105024;1267;65767;-32
2023/09/23 04:43:16;;;;;;;6.10;4.00;;;;;;;22.58;63.38;97801.11;105229;1263;72465;-32
2023/09/23 04:45:50;;;;;;;6.80;4.10;;;;;;;22.57;63.33;97805.32;105117;1267;60560;-33
2023/09/23 04:48:20;;;;;;;4.70;3.90;;;;;;;22.58;63.32;97814.52;104956;1268;60528;-32
2023/09/23 04:50:52;;;;;;;5.40;3.90;;;;;;;22.57;63.32;97820.59;105166;1258;73649;-32
2023/09/23 04:53:27;;;;;;;7.70;4.30;;;;;;;22.57;63.22;97824.80;105087;1260;66650;-32
2023/09/23 04:55:55;;;;;;;4.20;3.80;;;;;;;22.57;63.25;97823.48;105229;1261;72663;-31
2023/09/23 04:58:22;;;;;;;5.30;4.10;;;;;;;22.57;63.45;97821.92;105519;1262;60561;-32
2023/09/23 05:00:51;;;;;;;5.70;4.00;;;;;;;22.58;63.24;97812.02;105436;1260;60556;-32
2023/09/23 05:03:19;;;;;;;5.50;4.00;;;;;;;22.57;63.25;97808.28;105762;1258;73762;-33
2023/09/23 05:05:47;;;;;;;7.20;4.20;;;;;;;22.57;63.36;97811.16;105516;1262;65608;-32
2023/09/23 05:08:14;;;;;;;6.40;4.20;;;;;;;22.57;63.27;97814.75;105809;1262;72656;-33
2023/09/23 05:10:42;;;;;;;6.30;3.90;;;;;;;22.58;63.40;97812.02;105518;1262;60579;-33
2023/09/23 05:13:10;;;;;;;4.70;3.70;;;;;;;22.57;63.17;97814.52;105934;1262;60390;-33
2023/09/23 05:15:37;;;;;;;4.80;3.80;;;;;;;22.57;63.32;97827.30;105360;1260;74750;-31
2023/09/23 05:18:05;;;;;;;6.30;4.00;;;;;;;22.57;63.51;97826.60;105474;1260;65472;-32
2023/09/23 05:20:33;;;;;;;5.00;4.10;;;;;;;22.57;63.69;97826.14;105294;1259;72653;-31
2023/09/23 05:23:05;;;;;;;4.90;4.00;;;;;;;22.56;63.56;97829.01;105341;1261;60457;-32
2023/09/23 05:25:33;;;;;;;5.10;4.00;;;;;;;22.57;63.56;97831.90;105305;1258;60451;-31
2023/09/23 05:28:02;;;;;;;5.40;3.70;;;;;;;22.56;63.81;97828.39;105444;1258;73817;-31
2023/09/23 05:30:30;;;;;;;5.00;3.50;;;;;;;22.56;63.75;97825.04;105355;1262;66333;-31
2023/09/23 05:32:57;;;;;;;4.80;3.70;;;;;;;22.56;63.79;97823.48;105501;1260;72375;-31
2023/09/23 05:35:25;;;;;;;5.30;4.20;;;;;;;22.56;63.90;97811.77;105503;1262;60560;-30
2023/09/23 05:37:52;;;;;;;4.20;3.60;;;;;;;22.57;63.84;97816.23;105175;1260;60559;-33
2023/09/23 05:40:23;;;;;;;6.60;3.70;;;;;;;22.57;63.84;97822.70;105113;1260;74791;-31
2023/09/23 05:42:51;;;;;;;5.00;4.20;;;;;;;22.57;63.92;97819.20;105301;1262;66390;-32
2023/09/23 05:45:19;;;;;;;6.40;3.40;;;;;;;22.57;64.07;97811.00;105467;1260;72693;-31
2023/09/23 05:47:46;;;;;;;8.20;3.70;;;;;;;22.57;64.06;97822.16;105476;1262;60483;-31
2023/09/23 05:50:15;;;;;;;6.00;3.90;;;;;;;22.57;64.00;97830.43;105189;1258;60540;-31
2023/09/23 05:52:45;;;;;;;6.50;3.50;;;;;;;22.57;64.17;97831.52;105239;1258;72453;-33
2023/09/23 05:55:13;;;;;;;5.70;3.80;;;;;;;22.58;64.12;97827.86;105302;1259;65261;-32
2023/09/23 05:57:41;;;;;;;8.10;3.80;;;;;;;22.57;64.23;97830.65;105445;1258;72528;-31
2023/09/23 06:00:10;;;;;;;6.70;3.80;;;;;;;22.57;64.29;97830.58;105297;1260;60483;-32
2023/09/23 06:02:38;;;;;;;6.20;3.80;;;;;;;22.57;64.34;97835.02;105346;1259;60410;-32
2023/09/23 06:05:06;;;;;;;5.20;3.60;;;;;;;22.57;64.54;97836.73;105331;1258;73798;-33
2023/09/23 06:07:34;;;;;;;9.90;4.00;;;;;;;22.57;64.36;97829.25;105188;1262;66037;-31
2023/09/23 06:10:03;;;;;;;5.40;3.60;;;;;;;22.57;64.53;97831.20;105313;1260;73506;-33
2023/09/23 06:12:31;;;;;;;8.40;3.90;;;;;;;22.57;64.65;97836.50;105037;1265;61007;-33
2023/09/23 06:15:00;;;;;;;6.00;3.70;;;;;;;22.57;64.67;97830.34;105201;1260;60539;-34
2023/09/23 06:17:28;;;;;;;5.20;3.70;;;;;;;22.57;64.72;97830.10;105264;1260;73955;-32
2023/09/23 06:19:56;;;;;;;5.30;3.50;;;;;;;22.57;64.81;97830.48;105144;1260;65129;-32
2023/09/23 06:22:24;;;;;;;5.30;3.60;;;;;;;22.58;64.80;97837.38;105224;1262;73041;-32
2023/09/23 06:24:52;;;;;;;5.50;3.20;;;;;;;22.57;64.90;97838.23;105067;1264;60480;-33
2023/09/23 06:27:19;;;;;;;4.40;3.40;;;;;;;22.58;65.15;97842.99;105362;1260;60545;-33
2023/09/23 06:29:47;;;;;;;7.20;3.70;;;;;;;22.59;65.11;97842.92;105350;1257;73703;-30
2023/09/23 06:32:14;;;;;;;5.90;3.60;;;;;;;22.59;65.31;97841.05;105375;1262;65204;-32
2023/09/23 06:34:41;;;;;;;8.00;3.60;;;;;;;22.59;65.35;97839.18;105566;1258;72532;-31
2023/09/23 06:37:09;;;;;;;4.80;3.30;;;;;;;22.59;65.40;97840.12;105481;1262;60368;-31
2023/09/23 06:39:36;;;;;;;5.00;3.30;;;;;;;22.59;65.47;97845.90;107703;1261;59282;-31
2023/09/23 06:42:04;;;;;;;4.20;3.30;;;;;;;22.60;65.35;97847.01;105099;1260;74696;-31
2023/09/23 06:44:31;;;;;;;4.20;3.50;;;;;;;22.61;65.69;97843.98;105074;1262;65249;-31
2023/09/23 06:47:01;;;;;;;4.70;3.40;;;;;;;22.62;65.63;97841.75;105295;1260;72699;-31
2023/09/23 06:49:29;;;;;;;6.40;3.30;;;;;;;22.63;65.73;97848.00;105290;1259;60470;-31
2023/09/23 06:51:56;;;;;;;7.10;3.70;;;;;;;22.64;65.59;97853.52;105319;1260;60470;-31
2023/09/23 06:54:24;;;;;;;5.30;3.40;;;;;;;22.65;65.82;97854.41;105365;1257;73655;-32
2023/09/23 06:56:55;;;;;;;4.60;3.50;;;;;;;22.65;65.92;97852.70;106711;1260;65157;-32
2023/09/23 06:59:22;;;;;;;5.10;3.30;;;;;;;22.66;65.71;97855.84;105463;1260;72725;-32
2023/09/23 07:01:50;;;;;;;6.00;3.50;;;;;;;22.66;65.66;97862.07;105279;1262;60454;-32
2023/09/23 07:04:18;;;;;;;5.80;3.40;;;;;;;22.66;65.67;97864.09;105503;1259;60452;-32
2023/09/23 07:06:46;;;;;;;4.90;3.30;;;;;;;22.67;65.88;97870.66;105482;1262;73865;-32
2023/09/23 07:09:13;;;;;;;5.50;3.10;;;;;;;22.67;65.92;97878.93;105263;1262;65504;-31
2023/09/23 07:11:41;;;;;;;3.80;3.10;;;;;;;22.68;65.88;97888.30;105101;1259;72661;-31
2023/09/23 07:14:08;;;;;;;4.50;3.10;;;;;;;22.68;65.93;97896.17;105204;1262;60536;-32
2023/09/23 07:16:35;;;;;;;7.30;3.50;;;;;;;22.68;66.21;97899.98;105239;1260;60543;-31
2023/09/23 07:19:03;;;;;;;4.30;3.30;;;;;;;22.69;65.95;97904.79;105339;1260;73671;-30
2023/09/23 07:21:30;;;;;;;5.70;3.50;;;;;;;22.70;66.48;97904.48;105363;1262;65585;-31
2023/09/23 07:23:58;;;;;;;4.90;3.60;;;;;;;22.70;66.71;97907.98;105525;1260;72641;-31
2023/09/23 07:26:25;;;;;;;7.20;3.30;;;;;;;22.69;66.95;97902.83;105359;1262;60486;-31
2023/09/23 07:28:53;;;;;;;5.70;3.40;;;;;;;22.70;67.04;97904.62;105571;1260;60758;-33
2023/09/23 07:31:20;;;;;;;5.30;3.30;;;;;;;22.71;67.29;97907.98;105226;1261;73917;-32
2023/09/23 07:33:48;;;;;;;6.40;3.40;;;;;;;22.71;67.31;97902.77;105162;1262;66341;-32
2023/09/23 07:36:17;;;;;;;4.80;3.40;;;;;;;22.71;67.18;97903.23;105451;1262;73146;-31
2023/09/23 07:38:44;;;;;;;4.60;3.40;;;;;;;22.72;67.34;97905.11;105266;1262;60455;-31
2023/09/23 07:41:11;;;;;;;7.50;3.30;;;;;;;22.72;67.18;97910.03;105410;1260;60461;-31
2023/09/23 07:43:39;;;;;;;6.60;3.50;;;;;;;22.73;67.23;97909.96;105364;1259;73793;-31
2023/09/23 07:46:07;;;;;;;5.60;3.50;;;;;;;22.74;67.23;97902.81;105197;1262;65475;-30
2023/09/23 07:48:34;;;;;;;6.30;3.50;;;;;;;22.75;67.20;97901.79;105415;1262;72690;-31
2023/09/23 07:51:01;;;;;;;6.40;3.50;;;;;;;22.76;67.43;97902.89;105222;1264;60429;-32
2023/09/23 07:53:29;;;;;;;6.90;3.40;;;;;;;22.76;67.39;97908.53;105329;1260;60470;-31
2023/09/23 07:55:56;;;;;;;4.70;3.10;;;;;;;22.76;67.22;97910.33;105355;1260;73863;-31
2023/09/23 07:58:24;;;;;;;5.60;3.50;;;;;;;22.78;67.45;97905.81;105370;1262;66333;-31
2023/09/23 08:00:52;;;;;;;5.00;3.50;;;;;;;22.79;67.50;97903.48;105405;1262;72624;-31
2023/09/23 08:03:19;;;;;;;6.10;3.00;;;;;;;22.78;67.75;97900.75;105602;1262;60458;-31
2023/09/23 08:05:47;;;;;;;4.30;3.20;;;;;;;22.79;67.49;97902.40;105161;1259;60452;-32
2023/09/23 08:08:14;;;;;;;4.60;3.00;;;;;;;22.80;67.39;97901.02;105579;1262;73800;-30
2023/09/23 08:10:42;;;;;;;6.00;3.10;;;;;;;22.81;67.36;97899.86;105306;1260;65568;-33
2023/09/23 08:13:09;;;;;;;5.10;3.00;;;;;;;22.82;67.29;97895.88;105614;1261;72330;-32
2023/09/23 08:15:37;;;;;;;8.70;3.20;;;;;;;22.83;67.17;97892.84;105364;1262;60488;-32
2023/09/23 08:18:04;;;;;;;7.60;3.10;;;;;;;22.85;67.14;97891.16;105468;1262;60337;-32
2023/09/23 08:20:32;;;;;;;3.60;2.70;;;;;;;22.86;67.02;97890.64;105378;1260;73782;-32
2023/09/23 08:22:59;;;;;;;4.70;2.80;;;;;;;22.88;67.08;97888.85;105334;1262;66321;-31
2023/09/23 08:25:27;;;;;;;4.80;3.50;;;;;;;22.88;67.07;97887.23;105409;1260;72718;-31
2023/09/23 08:27:54;;;;;;;6.80;3.40;;;;;;;22.89;66.84;97885.12;105334;1262;60614;-31
2023/09/23 08:30:21;;;;;;;7.30;3.30;;;;;;;22.91;66.83;97890.45;105227;1259;60478;-31
2023/09/23 08:32:49;;;;;;;6.60;2.80;;;;;;;22.92;66.56;97893.96;105188;1262;73853;-31
2023/09/23 08:35:17;;;;;;;5.50;3.00;;;;;;;22.93;66.52;97891.88;105291;1259;66367;-31
2023/09/23 08:37:45;;;;;;;7.20;3.40;;;;;;;22.94;66.62;97888.38;105105;1262;72678;-31
2023/09/23 08:40:15;;;;;;;5.00;2.70;;;;;;;22.95;67.19;97890.34;105207;1266;61023;-31
2023/09/23 08:42:43;;;;;;;4.70;3.10;;;;;;;22.96;67.10;97890.81;105160;1260;60919;-33
2023/09/23 08:45:10;;;;;;;4.90;3.20;;;;;;;22.97;67.01;97885.84;105199;1258;74238;-32
2023/09/23 08:47:38;;;;;;;8.90;3.10;;;;;;;22.99;67.01;97886.24;105172;1262;66258;-32
2023/09/23 08:50:07;;;;;;;3.90;3.00;;;;;;;23.00;66.86;97878.85;105138;1259;72247;-32
2023/09/23 08:52:35;;;;;;;6.50;3.80;;;;;;;23.01;66.82;97875.03;105362;1262;60452;-32
2023/09/23 08:55:04;;;;;;;4.20;2.90;;;;;;;23.02;66.90;97874.41;105118;1260;60507;-32
2023/09/23 08:57:31;;;;;;;5.90;3.30;;;;;;;23.02;66.97;97875.75;105165;1262;73800;-31
2023/09/23 08:59:58;;;;;;;5.80;3.10;;;;;;;23.03;66.86;97877.63;105403;1262;66509;-31
2023/09/23 09:02:26;;;;;;;7.10;3.10;;;;;;;23.04;66.85;97882.16;105280;1260;152648;-31
2023/09/23 09:04:58;;;;;;;4.70;3.20;;;;;;;23.06;66.83;97895.60;105338;1262;60457;-31
2023/09/23 09:07:33;;;;;;;6.10;3.10;;;;;;;23.06;66.80;97888.36;105193;1260;60367;-31
2023/09/23 09:10:02;;;;;;;5.00;3.10;;;;;;;23.07;66.72;97883.91;105468;1261;73924;-31
2023/09/23 09:12:33;;;;;;;8.60;3.40;;;;;;;23.08;66.80;97895.39;105323;1262;66270;-31
2023/09/23 09:15:00;;;;;;;7.10;3.30;;;;;;;23.09;66.55;97892.98;105339;1259;72350;-31
2023/09/23 09:17:28;;;;;;;5.70;3.20;;;;;;;23.09;66.59;97898.05;105311;1261;60653;-31
2023/09/23 09:19:56;;;;;;;3.70;2.60;;;;;;;23.10;66.68;97899.23;105321;1260;60418;-31
2023/09/23 09:22:24;;;;;;;4.80;3.20;;;;;;;23.10;66.52;97895.41;105153;1258;73579;-31
2023/09/23 09:24:51;;;;;;;8.10;3.50;;;;;;;23.11;66.60;97893.55;105219;1262;66232;-32
2023/09/23 09:27:21;;;;;;;5.80;3.20;;;;;;;23.12;66.56;97890.99;105065;1260;72685;-32
2023/09/23 09:29:49;;;;;;;6.10;3.30;;;;;;;23.13;66.45;97892.55;105497;1262;60545;-30
2023/09/23 09:32:29;;;;;;;8.30;3.10;;;;;;;23.13;66.42;97888.42;105425;1260;60444;-31
2023/09/23 09:34:59;;;;;;;5.20;3.30;;;;;;;23.14;66.34;97887.96;105364;1260;73813;-32
2023/09/23 09:37:27;;;;;;;5.50;3.10;;;;;;;23.15;66.23;97887.04;105215;1258;66249;-31
2023/09/23 09:39:57;;;;;;;6.20;3.70;;;;;;;23.15;66.25;97886.11;105455;1261;72744;-31
2023/09/23 09:42:33;;;;;;;5.20;3.40;;;;;;;23.16;66.30;97884.16;105230;1262;60441;-31
2023/09/23 09:45:00;;;;;;;4.80;3.10;;;;;;;23.17;66.29;97880.49;105465;1260;60340;-31
2023/09/23 09:47:28;;;;;;;5.50;3.40;;;;;;;23.17;66.39;97872.30;105302;1262;73505;-30
2023/09/23 09:49:56;;;;;;;5.20;3.10;;;;;;;23.18;66.64;97872.23;105153;1262;66291;-30
2023/09/23 09:52:26;;;;;;;5.30;3.20;;;;;;;23.19;66.62;97867.24;105076;1264;73562;-31
2023/09/23 09:54:56;;;;;;;5.70;3.60;;;;;;;23.19;66.50;97867.48;105194;1260;61330;-33
2023/09/23 09:57:26;;;;;;;5.10;3.30;;;;;;;23.20;66.43;97863.20;105018;1257;60431;-32
2023/09/23 10:00:06;;;;;;;5.50;3.10;;;;;;;23.21;66.36;97857.66;105312;1262;73814;-32
2023/09/23 10:02:38;;;;;;;4.80;3.50;;;;;;;23.21;66.38;97849.63;105131;1262;65504;-32
2023/09/23 10:05:06;;;;;;;11.10;3.60;;;;;;;23.21;66.49;97848.30;105381;1260;73677;-34
2023/09/23 10:07:53;;;;;;;4.20;2.90;;;;;;;23.21;66.48;97844.88;105460;1271;60552;-33
2023/09/23 10:10:34;;;;;;;6.00;3.30;;;;;;;23.22;66.16;97846.83;105496;1258;60916;-31
2023/09/23 10:13:18;;;;;;;6.30;3.10;;;;;;;23.23;66.34;97844.80;105238;1263;73542;-31
2023/09/23 10:15:45;;;;;;;5.60;3.20;;;;;;;23.23;66.13;97848.71;105292;1259;64200;-31
2023/09/23 10:18:19;;;;;;;7.50;3.70;;;;;;;23.24;66.29;97847.80;105187;1260;73633;-31
2023/09/23 10:20:49;;;;;;;8.30;3.60;;;;;;;23.25;66.14;97841.02;105174;1260;60368;-33
2023/09/23 10:23:19;;;;;;;5.60;3.10;;;;;;;23.25;66.09;97841.55;105589;1262;60434;-34
2023/09/23 10:25:50;;;;;;;4.90;3.30;;;;;;;23.26;66.14;97841.33;105115;1262;73806;-32
2023/09/23 10:28:30;;;;;;;4.90;3.50;;;;;;;23.26;66.19;97836.17;105582;1262;65115;-32
2023/09/23 10:31:26;;;;;;;7.70;3.40;;;;;;;23.27;65.80;97834.86;105153;1263;72541;-31
2023/09/23 10:33:54;;;;;;;6.90;3.20;;;;;;;23.27;65.99;97834.15;105217;1263;61445;-30
2023/09/23 10:36:22;;;;;;;7.00;3.50;;;;;;;23.28;66.03;97838.68;105267;1260;60536;-32
2023/09/23 10:38:50;;;;;;;7.50;3.40;;;;;;;23.29;65.70;97843.47;105218;1262;74561;-34
2023/09/23 10:41:17;;;;;;;6.70;3.70;;;;;;;23.29;65.78;97845.42;105244;1262;66120;-31
2023/09/23 10:43:53;;;;;;;5.60;3.20;;;;;;;23.31;65.83;97843.86;105332;1259;73478;-33
2023/09/23 10:46:21;;;;;;;5.60;3.20;;;;;;;23.32;65.60;97835.84;105168;1262;61182;-32
2023/09/23 10:48:48;;;;;;;5.10;3.30;;;;;;;23.33;65.49;97841.85;105227;1262;60470;-32
2023/09/23 10:51:15;;;;;;;6.50;3.50;;;;;;;23.34;65.63;97842.11;105420;1262;73717;-30
2023/09/23 10:53:54;;;;;;;6.80;3.30;;;;;;;23.35;65.49;97840.10;105248;1265;65093;-33
2023/09/23 10:56:26;;;;;;;10.10;3.60;;;;;;;23.35;65.33;97841.59;105078;1266;72819;-33
2023/09/23 10:58:54;;;;;;;6.00;3.20;;;;;;;23.36;65.20;97838.96;105437;1262;60466;-30
2023/09/23 11:01:21;;;;;;;7.00;3.60;;;;;;;23.38;65.12;97843.95;105496;1259;60362;-31
2023/09/23 11:03:49;;;;;;;7.20;3.00;;;;;;;23.39;64.94;97841.17;105276;1262;73864;-31
2023/09/23 11:06:17;;;;;;;8.00;3.80;;;;;;;23.39;64.83;97838.13;105187;1264;65477;-32
2023/09/23 11:08:44;;;;;;;6.30;3.30;;;;;;;23.40;64.86;97837.27;105456;1259;73441;-32
2023/09/23 11:11:12;;;;;;;9.10;3.70;;;;;;;23.41;64.81;97828.45;105265;1263;60486;-30
2023/09/23 11:13:40;;;;;;;8.90;3.70;;;;;;;23.41;64.86;97828.06;105423;1260;60913;-31
2023/09/23 11:16:08;;;;;;;7.10;3.30;;;;;;;23.42;64.62;97831.81;105161;1261;73624;-32
2023/09/23 11:18:37;;;;;;;7.40;3.30;;;;;;;23.42;64.54;97834.63;105222;1262;67410;-34
2023/09/23 11:21:04;;;;;;;7.80;3.50;;;;;;;23.43;64.47;97831.84;105498;1263;73409;-33
2023/09/23 11:23:33;;;;;;;6.90;3.40;;;;;;;23.44;64.39;97838.77;105245;1263;60482;-32
2023/09/23 11:26:01;;;;;;;6.20;3.20;;;;;;;23.45;64.37;97840.74;105505;1258;60703;-30
2023/09/23 11:28:28;;;;;;;7.70;3.50;;;;;;;23.45;64.22;97838.96;105288;1263;74783;-31
2023/09/23 11:30:56;;;;;;;4.60;2.90;;;;;;;23.46;64.11;97838.27;105388;1262;66565;-32
2023/09/23 11:33:26;;;;;;;6.50;3.20;;;;;;;23.48;64.09;97836.71;105339;1262;72496;-32
2023/09/23 11:35:57;;;;;;;9.00;3.20;;;;;;;23.48;63.98;97836.87;105410;1263;60458;-32
2023/09/23 11:38:24;;;;;;;6.50;3.10;;;;;;;23.49;63.82;97839.98;105631;1261;60467;-31
2023/09/23 11:40:52;;;;;;;7.10;3.50;;;;;;;23.50;63.59;97838.29;105309;1258;74941;-32
2023/09/23 11:43:19;;;;;;;6.40;3.10;;;;;;;23.51;63.56;97839.39;105562;1262;66078;-32
2023/09/23 11:45:48;;;;;;;7.30;3.20;;;;;;;23.51;63.60;97843.29;105425;1262;72386;-32
2023/09/23 11:48:16;;;;;;;8.40;3.10;;;;;;;23.52;63.36;97841.04;105706;1260;60686;-32
2023/09/23 11:50:43;;;;;;;6.70;2.90;;;;;;;23.53;63.50;97841.29;105322;1260;60400;-31
2023/09/23 11:53:11;;;;;;;7.70;3.00;;;;;;;23.53;63.41;97845.89;105193;1262;73523;-32
2023/09/23 11:55:39;;;;;;;5.90;3.00;;;;;;;23.54;63.41;97848.71;105188;1262;64826;-32
2023/09/23 11:58:08;;;;;;;5.40;2.70;;;;;;;23.55;63.19;97855.51;105717;1262;72695;-33
2023/09/23 12:00:35;;;;;;;5.60;3.00;;;;;;;23.56;63.18;97855.83;105440;1262;60452;-34
2023/09/23 12:03:03;;;;;;;8.30;3.30;;;;;;;23.55;63.06;97857.46;105218;1263;60533;-33
2023/09/23 12:05:31;;;;;;;6.00;2.90;;;;;;;23.57;63.00;97858.50;105423;1258;72387;-32
2023/09/23 12:07:59;;;;;;;6.10;3.00;;;;;;;23.57;62.99;97853.59;105473;1263;66047;-32
2023/09/23 12:10:29;;;;;;;4.60;3.10;;;;;;;23.57;63.06;97855.92;105397;1264;72635;-32
2023/09/23 12:13:02;;;;;;;5.70;2.90;;;;;;;23.58;62.78;97856.86;105062;1264;60499;-31
2023/09/23 12:15:34;;;;;;;6.50;3.00;;;;;;;23.58;62.99;97853.58;105191;1271;60368;-31
2023/09/23 12:18:01;;;;;;;6.90;3.30;;;;;;;23.58;62.81;97854.27;105878;1258;74374;-31
2023/09/23 12:20:29;;;;;;;10.10;3.10;;;;;;;23.58;62.89;97851.48;105568;1264;66041;-31
2023/09/23 12:22:58;;;;;;;6.00;3.30;;;;;;;23.59;62.96;97856.95;105132;1260;72610;-31